Latest Weather Observations for Truscott

IDW60801

Issued at 2:05 pm WST Wednesday 26 November 2014 (issued every 30 minutes, with the page automatically refreshed every 10 minutes)

About weather observations | Map of weather stations | Latest weather observations for WA | Other Formats
Station Details ID: 001020 Name: TRUSCOTT Lat: -14.09 Lon: 126.39 Height: 51.0 m
Data from the previous 72 hours. | See also: Recent months at Truscott
Date/Time
WST
Temp
°C
App
Temp
°C
Dew
Point
Rel
Hum
%
Delta-T
°C
Wind Press
QNH
hPa
Press
MSL
hPa
Rain
since 9 am
mm
Dir
 
Spd
km/h
Gust
km/h
Spd
kts
Gust
kts
26/02:00pm 31.0 33.4 23.0 62 5.5 NNE 15 17 8 9 1005.0 - 0.0
26/01:30pm 31.0 33.4 23.0 62 5.5 NNE 15 15 8 8 1005.0 - 0.0
26/01:00pm 31.0 33.4 23.0 62 5.5 N 15 - 8 - 1006.0 - 0.0
26/12:30pm 31.0 32.9 22.0 58 6.1 NNE 15 - 8 - 1006.0 - 0.0
26/12:00pm 31.3 33.8 21.8 57 6.4 NNE 11 - 6 - 1006.0 1006.2 0.0
26/11:30am 31.0 33.1 21.0 55 6.7 NNE 11 - 6 - 1006.0 - 0.0
26/11:00am 31.0 33.6 22.0 58 6.1 ENE 11 - 6 - 1007.0 - 0.0
26/10:30am 31.0 33.5 21.0 55 6.7 NE 9 - 5 - 1007.0 - 0.0
26/10:00am 31.0 33.3 22.0 58 6.1 ENE 13 - 7 - 1007.0 - 0.0
26/09:30am 31.0 32.7 21.0 55 6.7 E 13 - 7 - 1008.0 - 0.0
26/09:00am 30.6 31.5 20.8 56 6.5 E 17 - 9 - 1008.0 1008.2 0.0
26/08:30am 31.0 31.6 21.0 55 6.7 SE 19 - 10 - 1008.0 - 0.0
26/08:00am 30.0 30.9 22.0 62 5.4 SE 20 - 11 - 1008.0 - 0.0
26/07:30am 30.0 31.1 22.0 62 5.4 SE 19 - 10 - 1008.0 - 0.0
26/07:00am 29.0 30.7 23.0 70 4.1 ESE 19 - 10 - 1008.0 - 0.0
26/06:30am 28.0 30.8 23.0 74 3.4 ESE 13 - 7 - 1008.0 - 0.0
26/06:00am 27.6 31.7 23.2 77 3.0 SE 7 - 4 - 1008.0 1007.5 0.0
26/05:30am 27.0 30.9 23.0 79 2.7 SE 7 - 4 - 1008.0 - 0.0
26/05:00am 27.0 30.6 23.0 79 2.7 SE 9 - 5 - 1007.0 - 0.0
26/04:30am 27.0 30.2 23.0 79 2.7 ESE 11 - 6 - 1007.0 - 0.0
26/04:00am 27.0 31.5 24.0 83 2.1 ESE 7 - 4 - 1007.0 - 0.0
26/03:30am 27.0 31.4 25.0 89 1.4 ESE 11 - 6 - 1007.0 - 0.0
26/03:00am 26.6 30.9 24.3 87 1.6 E 9 - 5 - 1006.0 1006.0 0.0
26/02:30am 26.0 31.5 24.0 89 1.4 E 2 - 1 - 1005.0 - 0.0
26/02:00am 27.0 32.8 24.0 83 2.1 CALM 0 - 0 - 1005.0 - 0.0
26/01:30am 27.0 32.3 23.0 79 2.7 CALM 0 - 0 - 1005.0 - 0.0
26/01:00am 27.0 31.5 23.0 79 2.7 ENE 4 - 2 - 1005.0 - 0.0
26/12:30am 28.0 31.6 23.0 74 3.4 SW 9 - 5 - 1005.0 - 0.0
26/12:00am 27.3 30.9 23.1 78 2.9 SSW 9 11 5 6 1006.0 1005.6 0.0
 
Date/Time
WST
Temp
°C
App
Temp
°C
Dew
Point
Rel
Hum
%
Delta-T
°C
Wind Press
QNH
hPa
Press
MSL
hPa
Rain
since 9 am
mm
Dir
 
Spd
km/h
Gust
km/h
Spd
kts
Gust
kts
25/11:30pm 27.0 31.1 23.0 79 2.7 S 6 - 3 - 1006.0 - 0.0
25/11:00pm 27.0 30.9 23.0 79 2.7 S 7 - 4 - 1007.0 - 0.0
25/10:30pm 27.0 31.5 23.0 79 2.7 SSW 4 - 2 - 1007.0 - 0.0
25/10:00pm 27.0 31.1 24.0 83 2.1 S 9 - 5 - 1007.0 - 0.0
25/09:30pm 28.0 32.7 24.0 79 2.8 S 6 - 3 - 1007.0 - 0.0
25/09:00pm 27.7 32.1 23.5 78 2.9 S 6 - 3 - 1007.0 1006.5 0.0
25/08:30pm 28.0 32.7 24.0 79 2.8 W 6 - 3 - 1006.0 - 0.0
25/08:00pm 28.0 32.5 24.0 79 2.8 N 7 - 4 - 1006.0 - 0.0
25/07:30pm 28.0 32.7 24.0 79 2.8 N 6 - 3 - 1006.0 - 0.0
25/07:00pm 28.0 32.5 24.0 79 2.8 E 7 - 4 - 1007.0 - 0.0
25/06:30pm 28.0 31.6 23.0 74 3.4 NE 9 - 5 - 1007.0 - 0.0
25/06:00pm 28.1 31.3 22.3 70 3.9 ESE 9 13 5 7 1006.0 1006.3 0.0
25/05:30pm 29.0 32.4 22.0 66 4.7 SE 7 - 4 - 1006.0 - 0.0
25/05:00pm 30.0 33.0 22.0 62 5.4 E 9 - 5 - 1006.0 - 0.0
25/04:30pm 29.0 31.3 22.0 66 4.7 SW 13 - 7 - 1006.0 - 0.0
25/04:00pm 29.0 31.8 23.0 70 4.1 NNE 13 - 7 - 1006.0 - 0.0
25/03:30pm 30.0 32.3 22.0 62 5.4 E 13 - 7 - 1006.0 - 0.0
25/03:00pm 29.7 31.7 21.6 61 5.5 N 13 - 7 - 1005.0 1005.1 0.0
25/02:46pm 29.0 29.6 21.0 62 5.3 NE 19 - 10 - 1005.0 - 0.0
25/02:30pm 29.0 28.2 20.0 58 5.9 E 24 - 13 - 1006.0 - 0.0
25/02:27pm 29.0 28.2 20.0 58 5.9 E 24 - 13 - 1006.0 - 0.0
25/02:17pm 31.0 30.1 19.0 48 7.8 E 22 - 12 - 1006.0 - 0.0
25/02:00pm 36.0 37.0 21.0 41 10.2 WNW 17 - 9 - 1005.0 - 0.0
25/01:30pm 35.0 36.7 23.0 49 8.3 WNW 19 - 10 - 1004.0 - 0.0
25/01:00pm 36.0 36.1 20.0 39 10.7 W 19 - 10 - 1005.0 - 0.0
25/12:30pm 36.0 37.0 21.0 41 10.2 W 17 - 9 - 1005.0 - 0.0
25/12:00pm 36.1 35.8 19.1 36 11.3 WNW 19 - 10 - 1006.0 1005.7 0.0
25/11:30am 37.0 37.9 20.0 37 11.4 WNW 15 - 8 - 1007.0 - 0.0
25/11:00am 36.0 37.9 22.0 44 9.6 WNW 15 - 8 - 1007.0 - 0.0
25/10:30am 35.0 37.3 22.0 46 8.9 W 13 - 7 - 1008.0 - 0.0
25/10:00am 35.0 37.0 20.0 41 10.0 SW 9 - 5 - 1008.0 - 0.0
25/09:30am 35.0 36.0 21.0 44 9.5 SW 17 - 9 - 1009.0 - 0.0
25/09:00am 33.5 35.4 21.3 48 8.3 SW 13 - 7 - 1009.0 1008.6 0.0
25/08:30am 33.0 36.8 24.0 59 6.3 SW 11 - 6 - 1009.0 - 0.0
25/08:00am 31.0 34.6 25.0 70 4.2 SW 15 - 8 - 1009.0 - 0.0
25/07:30am 30.0 34.0 25.0 74 3.5 SW 13 - 7 - 1009.0 - 0.0
25/07:00am 30.0 34.4 25.0 74 3.5 WSW 11 - 6 - 1009.0 - 0.0
25/06:30am 30.0 35.4 26.0 79 2.8 W 9 - 5 - 1009.0 - 0.0
25/06:00am 28.7 34.4 25.9 85 2.0 W 7 - 4 - 1008.0 1008.0 0.0
25/05:30am 28.0 34.3 26.0 89 1.4 W 4 - 2 - 1008.0 - 0.0
25/05:16am 28.0 35.1 26.0 89 1.4 CALM 0 - 0 - 1008.0 - 0.0
25/05:06am 27.0 33.5 25.0 89 1.4 CALM 0 - 0 - 1007.0 - 0.0
25/05:00am 28.0 34.1 25.0 84 2.1 W 2 - 1 - 1007.0 - 0.0
25/04:30am 28.0 34.0 26.0 89 1.4 WNW 6 - 3 - 1007.0 - 0.0
25/04:00am 28.0 34.3 26.0 89 1.4 W 4 - 2 - 1007.0 - 0.0
25/03:30am 28.0 34.0 26.0 89 1.4 WNW 6 - 3 - 1007.0 - 0.0
25/03:00am 27.9 33.4 25.3 86 1.8 NW 6 - 3 - 1007.0 1007.0 0.0
25/02:30am 28.0 32.7 25.0 84 2.1 WNW 9 - 5 - 1007.0 - 0.0
25/02:00am 28.0 33.3 25.0 84 2.1 NNW 6 - 3 - 1007.0 - 0.0
25/01:30am 28.0 33.1 25.0 84 2.1 N 7 - 4 - 1007.0 - 0.0
25/01:00am 28.0 33.8 26.0 89 1.4 NNW 7 - 4 - 1007.0 - 0.0
25/12:30am 28.0 34.0 26.0 89 1.4 N 6 - 3 - 1008.0 - 0.0
25/12:00am 28.5 33.9 25.5 84 2.1 NNW 7 - 4 - 1008.0 1008.1 0.0
 
Date/Time
WST
Temp
°C
App
Temp
°C
Dew
Point
Rel
Hum
%
Delta-T
°C
Wind Press
QNH
hPa
Press
MSL
hPa
Rain
since 9 am
mm
Dir
 
Spd
km/h
Gust
km/h
Spd
kts
Gust
kts
24/11:30pm 29.0 34.8 26.0 84 2.1 NW 7 - 4 - 1008.0 - 0.0
24/11:00pm 29.0 34.8 26.0 84 2.1 NW 7 - 4 - 1009.0 - 0.0
24/10:30pm 29.0 34.4 26.0 84 2.1 NW 9 - 5 - 1009.0 - 0.0
24/10:00pm 29.0 34.1 25.0 79 2.8 NW 7 - 4 - 1009.0 - 0.0
24/09:30pm 29.0 33.7 25.0 79 2.8 NNW 9 - 5 - 1009.0 - 0.0
24/09:00pm 29.3 33.8 24.6 76 3.3 N 9 - 5 - 1009.0 1009.0 0.0
24/08:30pm 30.0 34.7 25.0 74 3.5 NNW 9 - 5 - 1009.0 - 0.0
24/08:00pm 30.0 33.8 24.0 70 4.2 NNW 11 - 6 - 1008.0 - 0.0
24/07:30pm 30.0 34.7 25.0 74 3.5 NNW 9 - 5 - 1008.0 - 0.0
24/07:00pm 30.0 34.1 24.0 70 4.2 NNW 9 - 5 - 1008.0 - 0.0
24/06:30pm 31.0 34.2 23.0 62 5.5 NNW 11 - 6 - 1007.0 - 0.0
24/06:00pm 31.1 34.2 22.1 58 6.1 NNW 9 - 5 - 1007.0 1006.8 0.0
24/05:30pm 32.0 33.2 20.0 49 8.0 NNW 13 - 7 - 1006.0 - 0.0
24/05:00pm 33.0 32.5 16.0 36 10.7 NW 13 - 7 - 1006.0 - 0.0
24/04:30pm 34.0 32.8 15.0 32 11.8 NNW 15 - 8 - 1006.0 - 0.0
24/04:00pm 34.0 33.2 17.0 36 10.9 NNW 17 - 9 - 1006.0 - 0.0
24/03:30pm 35.0 35.0 19.0 39 10.5 NW 17 - 9 - 1006.0 - 0.0
24/03:00pm 34.3 34.6 20.3 44 9.4 NW 19 - 10 - 1006.0 1005.7 0.0
24/02:30pm 35.0 36.1 22.0 46 8.9 NW 19 - 10 - 1006.0 - 0.0
24/02:00pm 35.0 35.6 21.0 44 9.5 NNW 19 - 10 - 1006.0 - 0.0
24/01:30pm 36.0 36.5 20.0 39 10.7 NW 17 - 9 - 1006.0 - 0.0
24/01:00pm 36.0 36.0 19.0 36 11.2 WNW 17 - 9 - 1007.0 - 0.0
24/12:30pm 37.0 37.4 19.0 34 11.9 WNW 15 - 8 - 1007.0 - 0.0
24/12:00pm 35.7 35.4 18.3 35 11.4 W 17 - 9 - 1008.0 1007.9 0.0
24/11:30am 36.0 36.4 19.0 36 11.2 NW 15 - 8 - 1008.0 - 0.0
24/11:00am 35.0 34.6 18.0 36 11.1 W 17 - 9 - 1009.0 - 0.0
24/10:30am 35.0 36.5 22.0 46 8.9 W 17 - 9 - 1009.0 - 0.0
24/10:00am 34.0 36.6 22.0 49 8.2 WSW 11 - 6 - 1010.0 - 0.0
24/09:30am 33.0 35.3 22.0 52 7.5 W 13 - 7 - 1010.0 - 0.0
24/09:00am 32.4 35.3 23.1 58 6.4 WNW 13 - 7 - 1010.0 1010.0 0.0
24/08:30am 32.0 35.4 24.0 62 5.6 W 13 - 7 - 1011.0 - 0.0
24/08:00am 32.0 35.8 24.0 62 5.6 WSW 11 - 6 - 1011.0 - 0.0
24/07:30am 31.0 34.8 24.0 66 4.9 SW 11 - 6 - 1011.0 - 0.0
24/07:00am 30.0 34.5 24.0 70 4.2 SW 7 - 4 - 1010.0 - 0.0
24/06:30am 29.0 33.5 24.0 74 3.5 SSW 7 - 4 - 1010.0 - 0.0
24/06:14am 29.0 33.7 24.0 74 3.5 SSW 6 - 3 - 1010.0 - 0.0
24/06:10am 28.0 32.7 24.0 79 2.8 SSW 6 - 3 - 1010.0 - 0.0
24/06:00am 28.0 32.6 23.8 78 2.9 SSW 6 - 3 - 1010.0 1009.9 0.0
24/05:42am 27.0 31.7 24.0 83 2.1 SSW 6 - 3 - 1010.0 - 0.0
24/05:38am 27.0 31.5 24.0 83 2.1 SSW 7 - 4 - 1010.0 - 0.0
24/05:30am 26.0 30.7 24.0 89 1.4 S 6 - 3 - 1010.0 - 0.0
24/05:20am 26.0 30.7 24.0 89 1.4 S 6 - 3 - 1010.0 - 0.0
24/05:13am 26.0 31.1 24.0 89 1.4 S 4 - 2 - 1009.0 - 0.0
24/05:00am 26.0 30.7 24.0 89 1.4 S 6 - 3 - 1009.0 - 0.0
24/04:58am 26.0 30.7 24.0 89 1.4 S 6 - 3 - 1009.0 - 0.0
24/04:46am 26.0 31.1 24.0 89 1.4 S 4 - 2 - 1009.0 - 0.0
24/04:30am 26.0 31.1 24.0 89 1.4 S 4 - 2 - 1009.0 - 0.0
24/04:00am 26.0 30.5 24.0 89 1.4 S 7 - 4 - 1009.0 - 0.0
24/03:30am 26.0 31.1 24.0 89 1.4 S 4 - 2 - 1009.0 - 0.0
24/03:00am 27.1 32.4 25.3 90 1.3 WSW 7 - 4 - 1009.0 1008.4 0.0
24/02:30am 26.0 31.3 23.0 83 2.0 CALM 0 - 0 - 1009.0 - 0.0
24/02:00am 27.0 32.3 23.0 79 2.7 CALM 0 - 0 - 1009.0 - 0.0
24/01:30am 27.0 30.9 23.0 79 2.7 NW 7 - 4 - 1009.0 - 0.0
24/01:00am 27.0 31.7 24.0 83 2.1 WNW 6 - 3 - 1009.0 - 0.0
24/12:30am 27.0 31.5 24.0 83 2.1 NW 7 - 4 - 1009.0 - 0.0
24/12:00am 27.3 31.9 24.2 83 2.1 WNW 7 - 4 - 1010.0 1009.4 0.0
 
Date/Time
WST
Temp
°C
App
Temp
°C
Dew
Point
Rel
Hum
%
Delta-T
°C
Wind Press
QNH
hPa
Press
MSL
hPa
Rain
since 9 am
mm
Dir
 
Spd
km/h
Gust
km/h
Spd
kts
Gust
kts
23/11:30pm 28.0 32.7 24.0 79 2.8 NW 6 - 3 - 1010.0 - 0.0
23/11:00pm 28.0 33.3 25.0 84 2.1 WNW 6 - 3 - 1010.0 - 0.0
23/10:30pm 28.0 33.1 25.0 84 2.1 W 7 - 4 - 1010.0 - 0.0
23/10:00pm 28.0 32.5 24.0 79 2.8 WNW 7 - 4 - 1010.0 - 0.0
23/09:30pm 28.0 32.7 24.0 79 2.8 WNW 6 - 3 - 1011.0 - 0.0
23/09:00pm 28.6 33.6 24.8 80 2.7 WNW 7 - 4 - 1010.0 1010.3 0.0
23/08:30pm 29.0 34.1 25.0 79 2.8 NW 7 - 4 - 1010.0 - 0.0
23/08:00pm 29.0 34.1 25.0 79 2.8 NNW 7 - 4 - 1010.0 - 0.0
23/07:30pm 29.0 34.1 25.0 79 2.8 NW 7 - 4 - 1009.0 - 0.0
23/07:00pm 29.0 33.7 25.0 79 2.8 NW 9 - 5 - 1009.0 - 0.0
23/06:30pm 30.0 35.1 25.0 74 3.5 N 7 - 4 - 1009.0 - 0.0
23/06:00pm 29.8 34.2 24.4 73 3.8 NNW 9 - 5 - 1008.0 1008.1 0.0
23/05:30pm 30.0 33.4 24.0 70 4.2 N 13 - 7 - 1008.0 - 0.0
23/05:00pm 31.0 35.0 25.0 70 4.2 N 13 - 7 - 1007.0 - 0.0
23/04:30pm 32.0 34.8 23.0 59 6.2 N 13 - 7 - 1008.0 - 0.0
23/04:00pm 33.0 36.6 23.0 55 6.9 NNW 9 - 5 - 1007.0 - 0.0
23/03:30pm 32.0 34.0 23.0 59 6.2 N 17 - 9 - 1007.0 - 0.0
23/03:00pm 33.4 35.9 23.1 54 7.1 NNW 15 - 8 - 1007.0 1006.8 0.0
23/02:30pm 32.0 34.2 24.0 62 5.6 N 19 - 10 - 1007.0 - 0.0

Other Formats:

Comma delimited format used in spreadsheet applications
http://www.bom.gov.au/fwo/IDW60801/IDW60801.95101.axf

JavaScript Object Notation format (JSON) in row-major order
http://www.bom.gov.au/fwo/IDW60801/IDW60801.95101.json